Time;durP1;ratioP1;P1;durP2;ratioP2;P2;SDS_P1;SDS_P2;PMS_P1;PMS_P2;Temp;Humidity;BMP_temperature;BMP_pressure;BME280_temperature;BME280_humidity;BME280_pressure;Samples;Min_cycle;Max_cycle;Signal;HPM_P1;HPM_P2
2022/04/07 00:01:35;;;;;;;22.30;20.90;;;;;;;;;;5034727;28;20437;-90
2022/04/07 00:04:04;;;;;;;20.13;19.03;;;;;;;;;;5035124;28;20418;-90
2022/04/07 00:06:32;;;;;;;22.30;20.87;;;;;;;;;;5034530;28;20951;-90
2022/04/07 00:09:02;;;;;;;19.50;18.40;;;;;;;;;;5035007;28;20520;-89
2022/04/07 00:11:30;;;;;;;19.77;18.57;;;;;;;;;;5017630;28;20450;-90
2022/04/07 00:13:57;;;;;;;21.20;19.90;;;;;;;;;;5035369;28;20440;-91
2022/04/07 00:16:25;;;;;;;19.20;17.90;;;;;;;;;;5034701;28;20415;-90
2022/04/07 00:18:52;;;;;;;19.67;18.57;;;;;;;;;;5034786;28;20423;-90
2022/04/07 00:21:27;;;;;;;21.67;20.27;;;;;;;;;;5034364;28;20439;-90
2022/04/07 00:23:58;;;;;;;19.70;18.43;;;;;;;;;;5034537;28;20426;-91
2022/04/07 00:26:26;;;;;;;20.13;18.93;;;;;;;;;;5034400;28;21007;-90
2022/04/07 00:28:53;;;;;;;21.10;19.70;;;;;;;;;;5034297;28;20873;-90
2022/04/07 00:31:21;;;;;;;21.80;20.30;;;;;;;;;;5034189;28;20434;-90
2022/04/07 00:33:48;;;;;;;19.27;18.23;;;;;;;;;;5034618;28;20403;-88
2022/04/07 00:36:15;;;;;;;22.00;20.30;;;;;;;;;;5034395;28;20922;-90
2022/04/07 00:38:44;;;;;;;18.33;17.43;;;;;;;;;;5034223;28;20423;-90
2022/04/07 00:41:12;;;;;;;18.70;17.70;;;;;;;;;;5034290;28;20411;-89
2022/04/07 00:43:39;;;;;;;18.53;17.37;;;;;;;;;;5033585;28;20787;-90
2022/04/07 00:46:06;;;;;;;20.60;19.20;;;;;;;;;;5033882;28;20435;-90
2022/04/07 00:48:35;;;;;;;21.27;19.93;;;;;;;;;;5034097;28;20467;-88
2022/04/07 00:51:03;;;;;;;19.80;18.60;;;;;;;;;;5034310;28;20415;-89
2022/04/07 00:53:31;;;;;;;20.17;18.97;;;;;;;;;;5034275;28;20440;-90
2022/04/07 00:56:01;;;;;;;18.77;17.77;;;;;;;;;;5016581;28;20415;-90
2022/04/07 00:58:28;;;;;;;19.00;18.00;;;;;;;;;;5034168;28;20920;-90
2022/04/07 01:00:56;;;;;;;18.40;17.40;;;;;;;;;;5016361;28;20775;-90
2022/04/07 01:03:23;;;;;;;19.77;18.60;;;;;;;;;;5034064;28;20498;-89
2022/04/07 01:05:51;;;;;;;18.67;17.47;;;;;;;;;;5034028;28;20417;-90
2022/04/07 01:08:18;;;;;;;19.00;18.00;;;;;;;;;;5033846;28;20476;-89
2022/04/07 01:10:47;;;;;;;18.48;17.27;;;;;;;;;;5033627;28;20912;-90
2022/04/07 01:13:16;;;;;;;18.50;17.40;;;;;;;;;;5034219;28;20190;-89
2022/04/07 01:15:43;;;;;;;18.97;17.90;;;;;;;;;;5016280;28;20522;-89
2022/04/07 01:18:11;;;;;;;18.67;17.67;;;;;;;;;;5034011;28;20453;-90
2022/04/07 01:20:38;;;;;;;19.20;18.10;;;;;;;;;;5034100;28;20431;-90
2022/04/07 01:23:07;;;;;;;18.70;17.60;;;;;;;;;;5033727;28;20443;-89
2022/04/07 01:25:36;;;;;;;18.30;17.13;;;;;;;;;;5033500;28;20466;-90
2022/04/07 01:28:03;;;;;;;18.50;17.50;;;;;;;;;;5033940;28;20488;-89
2022/04/07 01:30:31;;;;;;;18.90;17.90;;;;;;;;;;5033698;28;20456;-90
2022/04/07 01:32:59;;;;;;;18.07;17.03;;;;;;;;;;5033630;28;20422;-90
2022/04/07 01:35:26;;;;;;;17.93;16.93;;;;;;;;;;5033859;28;20433;-90
2022/04/07 01:37:54;;;;;;;16.73;15.93;;;;;;;;;;5033722;28;20436;-90
2022/04/07 01:40:24;;;;;;;17.50;16.70;;;;;;;;;;5033794;28;20434;-90
2022/04/07 01:42:54;;;;;;;17.10;16.20;;;;;;;;;;5033699;28;20437;-90
2022/04/07 01:45:22;;;;;;;17.73;16.83;;;;;;;;;;5033929;28;20857;-89
2022/04/07 01:47:49;;;;;;;16.50;15.70;;;;;;;;;;5016122;28;20466;-88
2022/04/07 01:50:17;;;;;;;17.63;16.73;;;;;;;;;;5033928;28;20773;-90
2022/04/07 01:52:46;;;;;;;17.67;16.77;;;;;;;;;;5033725;28;20772;-89
2022/04/07 01:55:15;;;;;;;18.20;17.20;;;;;;;;;;5034577;28;20471;-90
2022/04/07 01:57:43;;;;;;;16.97;16.07;;;;;;;;;;5036845;28;20503;-89
2022/04/07 02:00:13;;;;;;;17.03;16.17;;;;;;;;;;5037298;28;20407;-90
2022/04/07 02:02:41;;;;;;;17.33;16.53;;;;;;;;;;5037555;28;20471;-90
2022/04/07 02:05:11;;;;;;;17.73;16.77;;;;;;;;;;5037165;28;20415;-88
2022/04/07 02:07:39;;;;;;;16.80;16.00;;;;;;;;;;5037433;28;20965;-90
2022/04/07 02:10:07;;;;;;;17.20;16.30;;;;;;;;;;5036829;28;20941;-90
2022/04/07 02:12:37;;;;;;;17.67;16.70;;;;;;;;;;5037166;28;20415;-90
2022/04/07 02:15:05;;;;;;;17.60;16.60;;;;;;;;;;5036837;28;20439;-89
2022/04/07 02:17:34;;;;;;;17.30;16.50;;;;;;;;;;5037151;28;20451;-90
2022/04/07 02:20:02;;;;;;;17.67;16.67;;;;;;;;;;5036651;28;20436;-90
2022/04/07 02:22:29;;;;;;;17.40;16.50;;;;;;;;;;5019206;28;20418;-90
2022/04/07 02:24:57;;;;;;;18.77;17.47;;;;;;;;;;5037009;28;20221;-90
2022/04/07 02:27:25;;;;;;;17.60;16.70;;;;;;;;;;5036920;28;20567;-89
2022/04/07 02:29:52;;;;;;;17.47;16.67;;;;;;;;;;5036871;28;20463;-90
2022/04/07 02:32:20;;;;;;;17.27;16.40;;;;;;;;;;5019154;28;20452;-90
2022/04/07 02:34:49;;;;;;;17.13;16.33;;;;;;;;;;5019242;28;20475;-89
2022/04/07 02:37:17;;;;;;;17.37;16.40;;;;;;;;;;5018865;28;20448;-90
2022/04/07 02:39:44;;;;;;;17.73;16.73;;;;;;;;;;5036365;28;20930;-90
2022/04/07 02:42:11;;;;;;;18.10;17.00;;;;;;;;;;5036710;28;20441;-90
2022/04/07 02:44:39;;;;;;;17.00;16.10;;;;;;;;;;5036728;28;20437;-90
2022/04/07 02:47:06;;;;;;;17.37;16.37;;;;;;;;;;5036961;28;20488;-90
2022/04/07 02:49:34;;;;;;;17.50;16.60;;;;;;;;;;5036340;28;20427;-90
2022/04/07 02:52:03;;;;;;;18.10;16.90;;;;;;;;;;5035933;28;20448;-90
2022/04/07 02:54:31;;;;;;;18.03;17.20;;;;;;;;;;5036008;28;20459;-89
2022/04/07 02:56:58;;;;;;;17.70;16.90;;;;;;;;;;5036058;28;20470;-90
2022/04/07 02:59:25;;;;;;;18.00;16.93;;;;;;;;;;5036081;28;20482;-90
2022/04/07 03:01:53;;;;;;;18.23;17.23;;;;;;;;;;5036040;28;20420;-89
2022/04/07 03:04:21;;;;;;;18.00;17.00;;;;;;;;;;5035947;28;20411;-90
2022/04/07 03:06:49;;;;;;;18.20;17.10;;;;;;;;;;5035854;28;20441;-90
2022/04/07 03:09:18;;;;;;;17.23;16.33;;;;;;;;;;5036085;28;20448;-89
2022/04/07 03:11:46;;;;;;;17.90;17.00;;;;;;;;;;5036060;28;20444;-90
2022/04/07 03:14:13;;;;;;;17.30;16.40;;;;;;;;;;5036008;28;20532;-90
2022/04/07 03:16:41;;;;;;;17.57;16.67;;;;;;;;;;5035946;28;20448;-90
2022/04/07 03:19:08;;;;;;;16.80;16.00;;;;;;;;;;5035606;28;20448;-90
2022/04/07 03:21:36;;;;;;;17.50;16.67;;;;;;;;;;5018187;28;20498;-89
2022/04/07 03:24:03;;;;;;;17.13;16.23;;;;;;;;;;5035633;28;20407;-90
2022/04/07 03:26:32;;;;;;;18.03;17.03;;;;;;;;;;5035884;28;20471;-90
2022/04/07 03:29:00;;;;;;;16.83;16.02;;;;;;;;;;5035609;28;21043;-90
2022/04/07 03:31:27;;;;;;;17.53;16.63;;;;;;;;;;5035722;28;20197;-89
2022/04/07 03:33:54;;;;;;;17.00;16.20;;;;;;;;;;5035661;28;20444;-90
2022/04/07 03:36:22;;;;;;;17.83;16.87;;;;;;;;;;5035547;28;20444;-90
2022/04/07 03:38:51;;;;;;;17.60;16.60;;;;;;;;;;5035539;28;20411;-89
2022/04/07 03:41:18;;;;;;;17.30;16.40;;;;;;;;;;5035289;28;20461;-90
2022/04/07 03:43:47;;;;;;;17.37;16.47;;;;;;;;;;5035037;28;20881;-89
2022/04/07 03:46:21;;;;;;;17.97;16.97;;;;;;;;;;5035341;28;20426;-88
2022/04/07 03:48:48;;;;;;;18.80;17.70;;;;;;;;;;5035192;28;20488;-90
2022/04/07 03:51:15;;;;;;;17.93;17.03;;;;;;;;;;5035181;28;20451;-90
2022/04/07 03:53:43;;;;;;;17.33;16.43;;;;;;;;;;5035381;28;20431;-90
2022/04/07 03:56:10;;;;;;;17.30;16.40;;;;;;;;;;5034949;28;20429;-90
2022/04/07 03:58:38;;;;;;;17.50;16.60;;;;;;;;;;5034996;28;20419;-89
2022/04/07 04:01:06;;;;;;;18.15;16.83;;;;;;;;;;5034751;28;20935;-90
2022/04/07 04:03:34;;;;;;;17.53;16.73;;;;;;;;;;5017318;28;20297;-90
2022/04/07 04:06:01;;;;;;;17.73;16.73;;;;;;;;;;5035027;28;20798;-89
2022/04/07 04:08:29;;;;;;;17.40;16.60;;;;;;;;;;5034632;28;20464;-90
2022/04/07 04:10:56;;;;;;;17.52;16.52;;;;;;;;;;5034610;28;20430;-90
2022/04/07 04:13:25;;;;;;;17.60;16.70;;;;;;;;;;5034936;28;20224;-89
2022/04/07 04:15:53;;;;;;;17.07;16.20;;;;;;;;;;5034947;28;20439;-90
2022/04/07 04:18:23;;;;;;;18.00;17.00;;;;;;;;;;5033709;28;20432;-89
2022/04/07 04:20:50;;;;;;;18.03;17.10;;;;;;;;;;5034460;28;20193;-89
2022/04/07 04:23:18;;;;;;;17.70;16.80;;;;;;;;;;5034622;28;20448;-90
2022/04/07 04:25:46;;;;;;;17.80;16.90;;;;;;;;;;5034046;28;20491;-89
2022/04/07 04:28:13;;;;;;;18.10;17.00;;;;;;;;;;5034625;28;20695;-87
2022/04/07 04:30:41;;;;;;;17.90;16.90;;;;;;;;;;5034424;28;20946;-89
2022/04/07 04:33:08;;;;;;;18.23;17.23;;;;;;;;;;5034456;28;20463;-89
2022/04/07 04:35:37;;;;;;;17.70;16.80;;;;;;;;;;5034659;28;20837;-89
2022/04/07 04:38:04;;;;;;;17.70;16.80;;;;;;;;;;5034569;28;20441;-89
2022/04/07 04:40:32;;;;;;;19.33;17.93;;;;;;;;;;5034340;28;20459;-89
2022/04/07 04:43:00;;;;;;;17.33;16.33;;;;;;;;;;5034069;28;20444;-90
2022/04/07 04:45:27;;;;;;;17.30;16.40;;;;;;;;;;5034418;28;20440;-90
2022/04/07 04:47:54;;;;;;;18.10;17.00;;;;;;;;;;5034515;28;20462;-88
2022/04/07 04:50:22;;;;;;;17.70;16.73;;;;;;;;;;5034287;28;20438;-89
2022/04/07 04:52:51;;;;;;;17.63;16.73;;;;;;;;;;5016591;28;20455;-90
2022/04/07 04:55:19;;;;;;;18.73;17.57;;;;;;;;;;5016518;28;20865;-90
2022/04/07 04:57:46;;;;;;;18.27;17.37;;;;;;;;;;5033981;28;20969;-90
2022/04/07 05:00:14;;;;;;;19.27;18.27;;;;;;;;;;5034180;28;20531;-88
2022/04/07 05:02:41;;;;;;;18.20;17.30;;;;;;;;;;5034011;28;20438;-89
2022/04/07 05:05:09;;;;;;;18.53;17.43;;;;;;;;;;5033998;28;20543;-89
2022/04/07 05:07:36;;;;;;;18.37;17.47;;;;;;;;;;5016093;28;20458;-92
2022/04/07 05:10:06;;;;;;;19.77;18.13;;;;;;;;;;5033814;28;20441;-90
2022/04/07 05:12:34;;;;;;;18.20;17.10;;;;;;;;;;5033902;28;20897;-92
2022/04/07 05:15:01;;;;;;;18.37;17.37;;;;;;;;;;5033758;28;20415;-93
2022/04/07 05:17:28;;;;;;;17.70;16.70;;;;;;;;;;5034145;28;20781;-92
2022/04/07 05:19:56;;;;;;;17.70;16.80;;;;;;;;;;5034172;28;20434;-92
2022/04/07 05:22:23;;;;;;;17.80;16.80;;;;;;;;;;5034260;28;20895;-91
2022/04/07 05:24:52;;;;;;;19.13;17.93;;;;;;;;;;5015887;28;20464;-91
2022/04/07 05:27:21;;;;;;;18.47;17.50;;;;;;;;;;5033557;28;20425;-95
2022/04/07 05:29:48;;;;;;;18.33;17.37;;;;;;;;;;5035797;28;20421;-92
2022/04/07 05:32:16;;;;;;;18.03;17.03;;;;;;;;;;5037623;28;20433;-92
2022/04/07 05:34:43;;;;;;;21.80;20.40;;;;;;;;;;5037646;28;20436;-92
2022/04/07 05:37:10;;;;;;;20.47;19.37;;;;;;;;;;5037827;28;20430;-92
2022/04/07 05:39:38;;;;;;;18.40;17.40;;;;;;;;;;5037634;28;20434;-92
2022/04/07 05:42:06;;;;;;;17.80;16.90;;;;;;;;;;5037780;28;20455;-92
2022/04/07 05:44:34;;;;;;;19.90;18.90;;;;;;;;;;5037793;28;20437;-91
2022/04/07 05:47:02;;;;;;;19.47;18.30;;;;;;;;;;5037633;28;20437;-92
2022/04/07 05:49:29;;;;;;;18.67;17.47;;;;;;;;;;5037190;28;20479;-91
2022/04/07 05:52:00;;;;;;;19.30;17.47;;;;;;;;;;5037610;28;20763;-92
2022/04/07 05:54:28;;;;;;;18.27;17.27;;;;;;;;;;5019798;28;20510;-91
2022/04/07 05:56:55;;;;;;;18.27;17.37;;;;;;;;;;5037074;28;20457;-91
2022/04/07 05:59:23;;;;;;;18.60;17.50;;;;;;;;;;5037160;28;20423;-91
2022/04/07 06:01:52;;;;;;;17.87;16.97;;;;;;;;;;5037318;28;20784;-92
2022/04/07 06:04:19;;;;;;;18.13;17.03;;;;;;;;;;5037228;28;20440;-92
2022/04/07 06:06:47;;;;;;;18.73;17.53;;;;;;;;;;5037214;28;20456;-88
2022/04/07 06:09:14;;;;;;;18.50;17.30;;;;;;;;;;5034173;28;20465;-87
2022/04/07 06:11:42;;;;;;;18.07;16.80;;;;;;;;;;5036762;28;20433;-89
2022/04/07 06:14:09;;;;;;;17.50;16.67;;;;;;;;;;5036955;28;20522;-91
2022/04/07 06:16:36;;;;;;;17.57;16.57;;;;;;;;;;5037031;28;20206;-91
2022/04/07 06:19:05;;;;;;;17.20;16.30;;;;;;;;;;5036937;28;20434;-90
2022/04/07 06:21:33;;;;;;;17.60;16.50;;;;;;;;;;5037166;28;20454;-91
2022/04/07 06:24:01;;;;;;;19.77;18.70;;;;;;;;;;5037673;28;20454;-90
2022/04/07 06:26:28;;;;;;;17.83;16.93;;;;;;;;;;5036874;28;20812;-88
2022/04/07 06:28:56;;;;;;;18.27;17.37;;;;;;;;;;5036468;28;20809;-88
2022/04/07 06:31:24;;;;;;;17.30;16.40;;;;;;;;;;5018401;28;20448;-89
2022/04/07 06:33:52;;;;;;;17.73;16.83;;;;;;;;;;5036803;28;20441;-87
2022/04/07 06:36:22;;;;;;;19.80;18.90;;;;;;;;;;5036162;28;20708;-87
2022/04/07 06:38:49;;;;;;;18.17;17.27;;;;;;;;;;5018722;28;20498;-87
2022/04/07 06:41:17;;;;;;;18.73;17.83;;;;;;;;;;5035579;28;20197;-86
2022/04/07 06:43:44;;;;;;;17.30;16.50;;;;;;;;;;5036119;28;20422;-94
2022/04/07 06:46:13;;;;;;;19.27;18.27;;;;;;;;;;5036864;28;20189;-92
2022/04/07 06:48:40;;;;;;;18.33;17.43;;;;;;;;;;5036288;28;20487;-93
2022/04/07 06:51:09;;;;;;;16.70;15.80;;;;;;;;;;5036583;28;20411;-93
2022/04/07 06:53:38;;;;;;;18.73;17.83;;;;;;;;;;5036212;28;20827;-93
2022/04/07 06:56:05;;;;;;;17.87;16.77;;;;;;;;;;5036222;28;20415;-94
2022/04/07 06:58:33;;;;;;;17.17;16.30;;;;;;;;;;5036453;28;20467;-94
2022/04/07 07:01:00;;;;;;;16.90;16.10;;;;;;;;;;5037381;28;20422;-91
2022/04/07 07:03:28;;;;;;;17.20;16.40;;;;;;;;;;5036052;28;20635;-92
2022/04/07 07:05:58;;;;;;;18.37;17.57;;;;;;;;;;5036039;28;20415;-93
2022/04/07 07:08:26;;;;;;;18.40;17.50;;;;;;;;;;5018062;28;20467;-87
2022/04/07 07:10:55;;;;;;;18.83;18.00;;;;;;;;;;5035772;28;20431;-94
2022/04/07 07:13:23;;;;;;;19.27;18.37;;;;;;;;;;5036192;28;20436;-94
2022/04/07 07:15:50;;;;;;;17.40;16.60;;;;;;;;;;5018450;28;20419;-94
2022/04/07 07:18:18;;;;;;;18.50;17.50;;;;;;;;;;5035799;28;20950;-94
2022/04/07 07:20:45;;;;;;;18.33;17.53;;;;;;;;;;5036195;28;20415;-94
2022/04/07 07:23:13;;;;;;;17.23;16.43;;;;;;;;;;5017841;28;20454;-93
2022/04/07 07:25:40;;;;;;;17.30;16.50;;;;;;;;;;5035765;28;20434;-94
2022/04/07 07:28:09;;;;;;;18.33;17.43;;;;;;;;;;5035614;28;20926;-93
2022/04/07 07:30:37;;;;;;;17.90;17.00;;;;;;;;;;5036063;28;20448;-92
2022/04/07 07:33:04;;;;;;;17.17;16.37;;;;;;;;;;5035854;28;20407;-93
2022/04/07 07:35:32;;;;;;;17.13;16.33;;;;;;;;;;5035743;28;20434;-93
2022/04/07 07:38:00;;;;;;;17.67;16.67;;;;;;;;;;5035473;28;20929;-93
2022/04/07 07:40:28;;;;;;;18.37;17.47;;;;;;;;;;5035357;28;20415;-93
2022/04/07 07:42:56;;;;;;;17.83;16.50;;;;;;;;;;5035656;28;20431;-90
2022/04/07 07:45:25;;;;;;;18.20;17.40;;;;;;;;;;5035740;28;20479;-89
2022/04/07 07:47:54;;;;;;;16.60;15.80;;;;;;;;;;5035536;28;20811;-88
2022/04/07 07:50:21;;;;;;;16.83;16.03;;;;;;;;;;5034893;28;20466;-92
2022/04/07 07:52:49;;;;;;;17.00;16.20;;;;;;;;;;5035868;28;20515;-93
2022/04/07 07:55:17;;;;;;;17.30;16.50;;;;;;;;;;5036112;28;20788;-93
2022/04/07 07:57:44;;;;;;;16.70;15.90;;;;;;;;;;5035624;28;20488;-92
2022/04/07 08:00:14;;;;;;;16.50;15.70;;;;;;;;;;5034436;28;20427;-93
2022/04/07 08:02:43;;;;;;;17.03;16.23;;;;;;;;;;5035067;28;20498;-92
2022/04/07 08:05:10;;;;;;;17.25;16.35;;;;;;;;;;5035043;28;20461;-93
2022/04/07 08:07:40;;;;;;;16.95;16.15;;;;;;;;;;5035211;28;20202;-92
2022/04/07 08:10:08;;;;;;;16.90;16.17;;;;;;;;;;5035090;28;20240;-93
2022/04/07 08:12:35;;;;;;;16.77;15.97;;;;;;;;;;5035074;28;20452;-92
2022/04/07 08:15:03;;;;;;;17.47;16.67;;;;;;;;;;5034859;28;20441;-91
2022/04/07 08:17:31;;;;;;;17.50;16.58;;;;;;;;;;5034699;28;20446;-92
2022/04/07 08:20:00;;;;;;;17.60;16.80;;;;;;;;;;5017087;28;20205;-92
2022/04/07 08:22:27;;;;;;;18.40;17.43;;;;;;;;;;5034365;28;20456;-91
2022/04/07 08:24:56;;;;;;;17.23;16.43;;;;;;;;;;5034428;28;20436;-92
2022/04/07 08:27:23;;;;;;;18.60;17.70;;;;;;;;;;5034422;28;20443;-92
2022/04/07 08:29:51;;;;;;;18.23;17.43;;;;;;;;;;5034808;28;20480;-91
2022/04/07 08:32:18;;;;;;;18.30;17.40;;;;;;;;;;5034651;28;20419;-92
2022/04/07 08:34:46;;;;;;;19.67;18.77;;;;;;;;;;5035159;28;20452;-92
2022/04/07 08:37:14;;;;;;;19.00;18.10;;;;;;;;;;5035108;28;20427;-94
2022/04/07 08:39:42;;;;;;;18.80;17.90;;;;;;;;;;5035143;28;20755;-93
2022/04/07 08:42:09;;;;;;;18.50;17.60;;;;;;;;;;5034591;28;20190;-92
2022/04/07 08:44:37;;;;;;;19.63;18.73;;;;;;;;;;5015773;28;20950;-92
2022/04/07 08:47:04;;;;;;;20.00;19.10;;;;;;;;;;5035047;28;20482;-93
2022/04/07 08:49:32;;;;;;;19.60;18.70;;;;;;;;;;5034325;28;20217;-92
2022/04/07 08:52:00;;;;;;;20.33;19.10;;;;;;;;;;5034882;28;20856;-93
2022/04/07 08:54:32;;;;;;;25.30;24.20;;;;;;;;;;5035005;28;20190;-93
2022/04/07 08:56:59;;;;;;;23.70;22.40;;;;;;;;;;5035037;28;20240;-93
2022/04/07 08:59:27;;;;;;;20.42;19.52;;;;;;;;;;5034805;28;20407;-93
2022/04/07 09:02:01;;;;;;;20.60;19.70;;;;;;;;;;5035634;28;20197;-93
2022/04/07 09:04:31;;;;;;;23.20;21.77;;;;;;;;;;5036700;28;20205;-93
2022/04/07 09:06:58;;;;;;;23.53;22.23;;;;;;;;;;5038171;28;20747;-91
2022/04/07 09:09:26;;;;;;;22.95;21.75;;;;;;;;;;5037059;28;20920;-93
2022/04/07 09:11:59;;;;;;;22.33;21.33;;;;;;;;;;5036737;28;20190;-93
2022/04/07 09:14:27;;;;;;;23.58;22.48;;;;;;;;;;5034997;28;20460;-93
2022/04/07 09:16:55;;;;;;;22.88;21.77;;;;;;;;;;5037800;28;20276;-93
2022/04/07 09:19:23;;;;;;;22.03;21.03;;;;;;;;;;5041314;28;20556;-93
2022/04/07 09:22:04;;;;;;;23.20;21.97;;;;;;;;;;5033764;28;20468;-86
2022/04/07 09:24:33;;;;;;;22.47;21.40;;;;;;;;;;5033810;28;20476;-93
2022/04/07 09:27:03;;;;;;;21.33;20.33;;;;;;;;;;5034037;28;20440;-89
2022/04/07 09:29:38;;;;;;;22.23;21.23;;;;;;;;;;5015786;28;20537;-90
2022/04/07 09:32:17;;;;;;;21.07;20.07;;;;;;;;;;5033836;28;20448;-91
2022/04/07 09:34:45;;;;;;;19.23;18.33;;;;;;;;;;5034650;28;20443;-91
2022/04/07 09:37:14;;;;;;;21.50;20.60;;;;;;;;;;5034330;28;20951;-91
2022/04/07 09:39:42;;;;;;;19.73;18.93;;;;;;;;;;5034430;28;20822;-91
2022/04/07 09:42:24;;;;;;;19.20;18.40;;;;;;;;;;5034925;28;20415;-90
2022/04/07 09:44:52;;;;;;;19.33;18.53;;;;;;;;;;5034174;28;20444;-91
2022/04/07 09:47:20;;;;;;;18.27;17.33;;;;;;;;;;5033842;28;20471;-91
2022/04/07 09:49:49;;;;;;;18.07;17.27;;;;;;;;;;5033748;28;20517;-90
2022/04/07 09:52:21;;;;;;;18.60;17.60;;;;;;;;;;5033854;28;20545;-90
2022/04/07 09:54:51;;;;;;;18.37;17.57;;;;;;;;;;5034266;28;20423;-90
2022/04/07 09:57:20;;;;;;;20.00;19.20;;;;;;;;;;5034291;28;20539;-89
2022/04/07 09:59:49;;;;;;;17.25;16.55;;;;;;;;;;5016106;28;20213;-91
2022/04/07 10:02:17;;;;;;;17.60;16.90;;;;;;;;;;5034480;28;20244;-91
2022/04/07 10:04:45;;;;;;;40.90;39.10;;;;;;;;;;5034185;28;20941;-90
2022/04/07 10:07:12;;;;;;;54.80;51.80;;;;;;;;;;5036166;28;20437;-93
2022/04/07 10:09:42;;;;;;;51.03;48.10;;;;;;;;;;5034123;28;20217;-93
2022/04/07 10:12:10;;;;;;;49.00;46.35;;;;;;;;;;5034376;28;20205;-91
2022/04/07 10:14:38;;;;;;;45.03;42.50;;;;;;;;;;5034654;28;20562;-87
2022/04/07 10:17:07;;;;;;;43.33;40.83;;;;;;;;;;5036178;28;20190;-88
2022/04/07 10:19:37;;;;;;;41.28;39.10;;;;;;;;;;5037952;28;20190;-89
2022/04/07 10:22:13;;;;;;;38.22;35.97;;;;;;;;;;5037726;28;20208;-88
2022/04/07 10:24:45;;;;;;;39.55;36.55;;;;;;;;;;5037663;28;20209;-89
2022/04/07 10:27:12;;;;;;;33.65;31.80;;;;;;;;;;5038069;28;20194;-90
2022/04/07 10:29:40;;;;;;;31.70;30.00;;;;;;;;;;5037645;28;20237;-88
2022/04/07 10:32:24;;;;;;;32.40;30.60;;;;;;;;;;5037978;28;20205;-88
2022/04/07 10:34:55;;;;;;;30.08;28.45;;;;;;;;;;5037214;28;20273;-89
2022/04/07 10:37:29;;;;;;;30.55;28.73;;;;;;;;;;5037167;28;20197;-90
2022/04/07 10:39:57;;;;;;;30.95;29.25;;;;;;;;;;5037875;28;20639;-90
2022/04/07 10:42:39;;;;;;;31.23;29.52;;;;;;;;;;5036616;28;20205;-87
2022/04/07 10:45:08;;;;;;;29.98;28.27;;;;;;;;;;5024650;28;20209;-86
2022/04/07 10:47:37;;;;;;;28.45;26.75;;;;;;;;;;5016437;28;20201;-86
2022/04/07 10:50:05;;;;;;;27.23;25.73;;;;;;;;;;5016832;28;20218;-89
2022/04/07 10:52:32;;;;;;;26.90;25.30;;;;;;;;;;5016845;28;20197;-88
2022/04/07 10:55:13;;;;;;;28.55;26.40;;;;;;;;;;5016338;28;20269;-88
2022/04/07 10:57:55;;;;;;;25.85;24.35;;;;;;;;;;5015974;28;20233;-88
2022/04/07 11:00:23;;;;;;;25.95;24.55;;;;;;;;;;5015709;28;20202;-88
2022/04/07 11:03:14;;;;;;;23.27;22.00;;;;;;;;;;5016402;28;20648;-88
2022/04/07 11:05:53;;;;;;;22.27;21.17;;;;;;;;;;5016472;28;20202;-88
2022/04/07 11:08:22;;;;;;;22.52;21.33;;;;;;;;;;5016178;28;20217;-88
2022/04/07 11:10:52;;;;;;;24.77;23.10;;;;;;;;;;5015807;28;20218;-88
2022/04/07 11:13:20;;;;;;;25.48;23.88;;;;;;;;;;5016481;28;20195;-88
2022/04/07 11:15:54;;;;;;;23.10;21.80;;;;;;;;;;5016600;28;20201;-90
2022/04/07 11:18:40;;;;;;;23.33;21.92;;;;;;;;;;5016425;28;20271;-88
2022/04/07 11:21:12;;;;;;;25.58;23.98;;;;;;;;;;5016118;28;20197;-89
2022/04/07 11:23:41;;;;;;;23.42;21.85;;;;;;;;;;5016218;28;20235;-89
2022/04/07 11:26:12;;;;;;;23.42;21.90;;;;;;;;;;5015799;28;20252;-89
2022/04/07 11:28:39;;;;;;;23.13;21.73;;;;;;;;;;5015793;28;20201;-88
2022/04/07 11:31:07;;;;;;;23.02;21.73;;;;;;;;;;5015975;28;20718;-88
2022/04/07 11:33:38;;;;;;;22.70;21.40;;;;;;;;;;5016216;28;20277;-87
2022/04/07 11:36:38;;;;;;;22.10;21.00;;;;;;;;;;5015618;28;20194;-87
2022/04/07 11:39:12;;;;;;;22.38;21.15;;;;;;;;;;5015845;28;20548;-88
2022/04/07 11:41:45;;;;;;;22.42;21.23;;;;;;;;;;5015666;28;20217;-87
2022/04/07 11:44:14;;;;;;;22.45;21.02;;;;;;;;;;5015698;28;20198;-88
2022/04/07 11:46:41;;;;;;;21.90;20.80;;;;;;;;;;5015335;28;20202;-88
2022/04/07 11:49:09;;;;;;;23.05;21.85;;;;;;;;;;4998059;28;20453;-89
2022/04/07 11:51:39;;;;;;;23.80;22.50;;;;;;;;;;5015376;28;20272;-89
2022/04/07 11:54:08;;;;;;;22.63;21.42;;;;;;;;;;5015752;28;20222;-88
2022/04/07 11:56:41;;;;;;;22.90;21.70;;;;;;;;;;5015265;28;20241;-88
2022/04/07 11:59:09;;;;;;;23.08;21.88;;;;;;;;;;5015361;28;20195;-88
2022/04/07 12:01:37;;;;;;;21.63;20.52;;;;;;;;;;5015597;28;20599;-88
2022/04/07 12:04:05;;;;;;;23.35;22.00;;;;;;;;;;5015162;28;20201;-88
2022/04/07 12:06:33;;;;;;;22.88;21.60;;;;;;;;;;5015464;28;20191;-88
2022/04/07 12:09:01;;;;;;;23.30;22.00;;;;;;;;;;5015206;28;20208;-88
2022/04/07 12:11:31;;;;;;;23.42;22.23;;;;;;;;;;5015046;28;20261;-87
2022/04/07 12:14:00;;;;;;;25.58;24.27;;;;;;;;;;5015027;28;20240;-87
2022/04/07 12:16:28;;;;;;;24.45;23.15;;;;;;;;;;5015416;28;20198;-88
2022/04/07 12:18:56;;;;;;;24.80;23.60;;;;;;;;;;5015080;28;20190;-89
2022/04/07 12:21:25;;;;;;;23.48;22.17;;;;;;;;;;5015385;28;20194;-88
2022/04/07 12:24:07;;;;;;;22.10;21.00;;;;;;;;;;4997515;28;20222;-88
2022/04/07 12:26:41;;;;;;;22.25;21.15;;;;;;;;;;5014953;28;20487;-88
2022/04/07 12:29:08;;;;;;;22.20;21.00;;;;;;;;;;5015002;28;20223;-89
2022/04/07 12:31:36;;;;;;;21.77;20.67;;;;;;;;;;5014966;28;20237;-91
2022/04/07 12:34:12;;;;;;;23.40;22.15;;;;;;;;;;5014679;28;20197;-91
2022/04/07 12:36:40;;;;;;;21.80;20.57;;;;;;;;;;5014861;28;20216;-91
2022/04/07 12:39:09;;;;;;;20.83;19.57;;;;;;;;;;5013996;28;20984;-90
2022/04/07 12:41:41;;;;;;;20.27;19.17;;;;;;;;;;5014464;28;20956;-91
2022/04/07 12:44:09;;;;;;;22.77;21.67;;;;;;;;;;5014744;28;21020;-91
2022/04/07 12:46:47;;;;;;;21.83;20.73;;;;;;;;;;5014754;28;20515;-91
2022/04/07 12:49:15;;;;;;;21.20;20.20;;;;;;;;;;5014791;28;20516;-90
2022/04/07 12:51:43;;;;;;;22.07;20.87;;;;;;;;;;5014679;28;20814;-91
2022/04/07 12:54:12;;;;;;;21.77;20.67;;;;;;;;;;5014558;28;20448;-90
2022/04/07 12:56:41;;;;;;;23.33;22.13;;;;;;;;;;5014512;28;20489;-90
2022/04/07 12:59:11;;;;;;;23.10;21.75;;;;;;;;;;5014835;28;20415;-91
2022/04/07 13:01:39;;;;;;;23.13;21.83;;;;;;;;;;5014490;28;20214;-91
2022/04/07 13:04:08;;;;;;;25.90;24.70;;;;;;;;;;5014882;28;20197;-90
2022/04/07 13:06:37;;;;;;;21.65;20.55;;;;;;;;;;5015557;28;20449;-84
2022/04/07 13:09:05;;;;;;;22.67;21.30;;;;;;;;;;5014619;28;20225;-90
2022/04/07 13:11:33;;;;;;;22.20;20.80;;;;;;;;;;5013339;28;20579;-90
2022/04/07 13:14:03;;;;;;;21.10;20.00;;;;;;;;;;5032218;28;20798;-88
2022/04/07 13:16:30;;;;;;;20.60;19.50;;;;;;;;;;5034201;28;20208;-87
2022/04/07 13:18:58;;;;;;;21.60;20.40;;;;;;;;;;5033582;28;20197;-87
2022/04/07 13:21:26;;;;;;;20.90;19.80;;;;;;;;;;5016601;28;20411;-85
2022/04/07 13:23:53;;;;;;;22.58;21.27;;;;;;;;;;5035574;28;20468;-95
2022/04/07 13:26:21;;;;;;;25.67;24.30;;;;;;;;;;5034775;28;20213;-96
2022/04/07 13:28:50;;;;;;;24.57;23.17;;;;;;;;;;5034650;28;20454;-95
2022/04/07 13:31:19;;;;;;;30.23;28.30;;;;;;;;;;5034573;28;20517;-94
2022/04/07 13:33:47;;;;;;;28.97;27.23;;;;;;;;;;5035430;28;20448;-94
2022/04/07 13:36:14;;;;;;;28.20;26.80;;;;;;;;;;5016529;28;20444;-94
2022/04/07 13:38:42;;;;;;;27.93;26.43;;;;;;;;;;5034668;28;20441;-95
2022/04/07 13:41:09;;;;;;;25.80;24.50;;;;;;;;;;5033803;28;20466;-94
2022/04/07 13:43:36;;;;;;;24.63;23.23;;;;;;;;;;5033772;28;20443;-94
2022/04/07 13:46:04;;;;;;;24.93;23.63;;;;;;;;;;5033979;28;20464;-95
2022/04/07 13:48:35;;;;;;;26.00;24.40;;;;;;;;;;5016242;28;20423;-95
2022/04/07 13:51:02;;;;;;;23.70;22.50;;;;;;;;;;5036414;28;20487;-95
2022/04/07 13:53:30;;;;;;;23.60;22.30;;;;;;;;;;5037775;28;20459;-93
2022/04/07 13:55:58;;;;;;;23.00;21.60;;;;;;;;;;5037919;28;20427;-91
2022/04/07 13:58:25;;;;;;;22.23;21.03;;;;;;;;;;5037060;28;20243;-91
2022/04/07 14:00:53;;;;;;;22.20;20.63;;;;;;;;;;5019990;28;20456;-92
2022/04/07 14:03:20;;;;;;;22.13;20.57;;;;;;;;;;5020233;28;20909;-92
2022/04/07 14:05:49;;;;;;;21.10;19.90;;;;;;;;;;5037712;28;20439;-93
2022/04/07 14:08:17;;;;;;;22.20;20.80;;;;;;;;;;5037556;28;20456;-92
2022/04/07 14:10:44;;;;;;;22.67;20.73;;;;;;;;;;5037540;28;20455;-92
2022/04/07 14:13:11;;;;;;;21.50;20.10;;;;;;;;;;5037544;28;20547;-92
2022/04/07 14:15:40;;;;;;;22.10;20.70;;;;;;;;;;5020108;28;20783;-93
2022/04/07 14:18:08;;;;;;;22.80;20.87;;;;;;;;;;5037995;28;20461;-93
2022/04/07 14:20:36;;;;;;;21.00;19.60;;;;;;;;;;5038224;28;20498;-93
2022/04/07 14:23:04;;;;;;;20.70;19.40;;;;;;;;;;5038414;28;20476;-92
2022/04/07 14:25:32;;;;;;;21.10;19.80;;;;;;;;;;5037974;28;20426;-93